Time;durP1;ratioP1;P1;durP2;ratioP2;P2;SDS_P1;SDS_P2;PMS_P1;PMS_P2;Temp;Humidity;BMP_temperature;BMP_pressure;BME280_temperature;BME280_humidity;BME280_pressure;Samples;Min_cycle;Max_cycle;Signal;HPM_P1;HPM_P2
2023/03/26 00:00:42;;;;;;;4.70;2.50;;;;;;;9.29;61.14;95746.00;4989723;28;20451;-68
2023/03/26 00:03:12;;;;;;;8.47;3.30;;;;;;;9.27;60.64;95745.22;4989356;28;20484;-68
2023/03/26 00:05:38;;;;;;;4.03;2.07;;;;;;;9.23;60.23;95744.50;4989468;28;20464;-68
2023/03/26 00:08:07;;;;;;;3.40;1.97;;;;;;;9.28;59.88;95744.28;4989163;28;20470;-67
2023/03/26 00:10:35;;;;;;;4.73;1.47;;;;;;;9.22;60.82;95744.63;4989261;28;20417;-67
2023/03/26 00:13:00;;;;;;;6.30;2.20;;;;;;;9.14;60.45;95744.13;4988997;28;20416;-67
2023/03/26 00:15:26;;;;;;;6.63;1.93;;;;;;;9.24;60.58;95748.00;4989033;28;20412;-67
2023/03/26 00:17:53;;;;;;;8.00;2.30;;;;;;;9.11;61.27;95745.13;4970261;28;20695;-68
2023/03/26 00:20:19;;;;;;;3.50;2.07;;;;;;;9.10;60.96;95739.03;4969942;28;20244;-67
2023/03/26 00:22:44;;;;;;;6.80;1.90;;;;;;;9.14;61.36;95738.88;4978298;28;20420;-67
2023/03/26 00:25:10;;;;;;;4.33;2.30;;;;;;;8.94;62.12;95747.72;4988804;28;20599;-67
2023/03/26 00:27:35;;;;;;;2.67;1.63;;;;;;;9.08;61.59;95742.66;4988524;28;20268;-67
2023/03/26 00:30:03;;;;;;;3.70;1.53;;;;;;;9.04;61.12;95735.88;4989046;28;20191;-67
2023/03/26 00:32:30;;;;;;;2.30;1.70;;;;;;;8.99;61.19;95738.72;4988725;28;20169;-68
2023/03/26 00:35:00;;;;;;;5.60;1.80;;;;;;;8.99;60.89;95741.31;4988819;28;20898;-67
2023/03/26 00:37:26;;;;;;;7.30;1.80;;;;;;;8.97;61.18;95735.31;4988807;28;20463;-68
2023/03/26 00:39:52;;;;;;;9.10;3.17;;;;;;;9.00;61.44;95740.44;4988725;28;20428;-67
2023/03/26 00:42:19;;;;;;;4.97;1.87;;;;;;;9.09;61.34;95737.38;4988830;28;20192;-67
2023/03/26 00:44:44;;;;;;;3.87;1.77;;;;;;;8.93;61.39;95736.41;4988482;28;20451;-67
2023/03/26 00:47:10;;;;;;;3.17;1.73;;;;;;;8.99;61.34;95735.25;4988331;28;20882;-68
2023/03/26 00:49:35;;;;;;;5.60;2.03;;;;;;;9.03;61.67;95728.97;4988787;28;20643;-67
2023/03/26 00:52:02;;;;;;;2.33;1.90;;;;;;;8.95;61.56;95731.09;4988669;28;20535;-67
2023/03/26 00:54:28;;;;;;;4.53;1.83;;;;;;;8.95;61.67;95736.31;4988656;28;20157;-67
2023/03/26 00:56:54;;;;;;;7.40;2.07;;;;;;;8.99;61.57;95727.41;4987913;28;20470;-69
2023/03/26 00:59:21;;;;;;;2.57;1.60;;;;;;;8.97;61.56;95729.25;4988477;28;21041;-67
2023/03/26 01:01:47;;;;;;;1.60;1.30;;;;;;;8.88;61.93;95728.78;4988364;28;21031;-67
2023/03/26 01:04:29;;;;;;;2.93;1.50;;;;;;;9.02;61.33;95722.84;4988287;28;21113;-67
2023/03/26 01:06:57;;;;;;;2.03;1.73;;;;;;;9.05;61.53;95720.09;4987851;28;20432;-67
2023/03/26 01:09:31;;;;;;;2.43;1.70;;;;;;;8.97;62.17;95719.63;4988153;28;20416;-67
2023/03/26 01:12:00;;;;;;;1.90;1.50;;;;;;;8.89;61.99;95714.75;4988046;28;20412;-67
2023/03/26 01:14:27;;;;;;;3.10;1.87;;;;;;;8.90;62.20;95718.22;4986590;28;20470;-67
2023/03/26 01:16:55;;;;;;;2.47;2.10;;;;;;;9.00;62.28;95714.25;4987552;28;20444;-67
2023/03/26 01:19:40;;;;;;;2.00;1.73;;;;;;;9.01;62.03;95707.25;4987921;28;20520;-67
2023/03/26 01:22:09;;;;;;;3.67;2.00;;;;;;;9.02;62.50;95701.91;4987677;28;20933;-67
2023/03/26 01:24:36;;;;;;;3.30;1.50;;;;;;;9.07;62.29;95699.06;4987884;28;20458;-67
2023/03/26 01:27:33;;;;;;;9.10;2.50;;;;;;;9.05;61.65;95690.47;4987464;28;20955;-68
2023/03/26 01:30:24;;;;;;;7.60;2.07;;;;;;;9.13;61.89;95698.78;4983412;28;20420;-68
2023/03/26 01:33:12;;;;;;;2.07;1.37;;;;;;;9.13;62.28;95693.56;4968202;28;20417;-67
2023/03/26 01:35:53;;;;;;;5.43;3.50;;;;;;;9.02;62.22;95694.06;4968069;28;20398;-68
2023/03/26 01:38:26;;;;;;;2.70;1.60;;;;;;;8.97;62.96;95679.53;4967554;28;20409;-68
2023/03/26 01:40:59;;;;;;;3.77;2.33;;;;;;;8.99;63.33;95683.75;4968269;28;20440;-67
2023/03/26 01:43:27;;;;;;;3.90;1.70;;;;;;;8.91;62.79;95678.06;4969991;28;20413;-68
2023/03/26 01:45:55;;;;;;;4.13;1.87;;;;;;;8.91;63.24;95672.84;4968156;28;20500;-68
2023/03/26 01:48:30;;;;;;;3.60;2.27;;;;;;;9.00;62.31;95664.53;4968517;28;20504;-68
2023/03/26 01:50:57;;;;;;;5.37;2.47;;;;;;;8.98;62.63;95650.66;4968875;28;20475;-67
2023/03/26 01:53:23;;;;;;;2.40;1.97;;;;;;;8.73;63.83;95643.16;4968577;28;20417;-67
2023/03/26 01:56:09;;;;;;;4.77;1.60;;;;;;;8.92;62.88;95652.75;4968005;28;20432;-67
2023/03/26 01:59:00;;;;;;;4.63;1.97;;;;;;;8.94;62.74;95648.28;4968652;28;20420;-67
2023/03/26 02:01:36;;;;;;;3.00;2.07;;;;;;;8.98;62.79;95644.59;4968396;28;20417;-67
2023/03/26 02:04:21;;;;;;;3.37;2.00;;;;;;;9.02;62.49;95654.81;4968031;28;20440;-67
2023/03/26 02:07:04;;;;;;;5.17;2.00;;;;;;;8.98;62.93;95645.44;4967777;28;20436;-66
2023/03/26 02:09:39;;;;;;;4.47;2.77;;;;;;;9.00;63.36;95640.09;4967930;28;20565;-66
2023/03/26 02:12:06;;;;;;;2.77;2.00;;;;;;;8.98;63.29;95632.34;4968148;28;20491;-66
2023/03/26 02:14:31;;;;;;;8.30;2.80;;;;;;;8.93;63.49;95634.34;4967615;28;20473;-67
2023/03/26 02:16:58;;;;;;;4.80;1.93;;;;;;;8.84;64.18;95622.56;4978990;28;20432;-67
2023/03/26 02:19:24;;;;;;;5.63;2.50;;;;;;;8.82;63.61;95620.94;4987272;28;20177;-66
2023/03/26 02:21:58;;;;;;;5.50;2.40;;;;;;;8.76;64.68;95619.47;4985955;28;20419;-65
2023/03/26 02:24:24;;;;;;;3.40;2.50;;;;;;;8.78;64.65;95614.16;4987114;28;20212;-66
2023/03/26 02:26:50;;;;;;;4.37;1.70;;;;;;;8.67;64.29;95615.56;4986950;28;21233;-67
2023/03/26 02:29:20;;;;;;;3.30;2.37;;;;;;;8.76;64.21;95606.38;4987070;28;20898;-67
2023/03/26 02:31:49;;;;;;;8.43;2.57;;;;;;;8.92;63.93;95611.72;4987098;28;21310;-67
2023/03/26 02:34:15;;;;;;;2.83;1.97;;;;;;;8.53;65.14;95599.69;4987187;28;20412;-68
2023/03/26 02:36:41;;;;;;;3.47;2.00;;;;;;;8.66;65.17;95607.78;4986975;28;20447;-67
2023/03/26 02:39:10;;;;;;;2.80;2.10;;;;;;;8.83;64.24;95599.94;4985460;28;20180;-67
2023/03/26 02:41:39;;;;;;;7.40;2.63;;;;;;;8.69;65.18;95592.78;4986982;28;20431;-67
2023/03/26 02:44:05;;;;;;;4.33;2.50;;;;;;;8.64;64.68;95591.31;4987074;28;20676;-67
2023/03/26 02:46:33;;;;;;;4.03;2.53;;;;;;;8.71;64.66;95577.00;4986737;28;21027;-66
2023/03/26 02:48:59;;;;;;;5.50;2.10;;;;;;;8.70;64.52;95585.78;4988017;28;20172;-68
2023/03/26 02:51:26;;;;;;;7.93;2.30;;;;;;;8.81;63.82;95580.88;4991032;28;21245;-67
2023/03/26 02:53:52;;;;;;;5.00;2.13;;;;;;;8.74;64.01;95576.88;4990912;28;20185;-67
2023/03/26 02:56:18;;;;;;;5.03;2.03;;;;;;;8.85;64.35;95579.78;4988993;28;20451;-68
2023/03/26 02:58:45;;;;;;;8.00;2.10;;;;;;;8.85;64.21;95573.69;4990585;28;20421;-67
2023/03/26 03:01:11;;;;;;;5.00;2.10;;;;;;;8.86;63.68;95580.63;4990788;28;20169;-67
2023/03/26 03:03:37;;;;;;;2.70;2.00;;;;;;;8.47;65.92;95576.44;4991012;28;20416;-66
2023/03/26 03:06:03;;;;;;;3.70;2.30;;;;;;;8.04;66.77;95570.63;4990234;28;20553;-67
2023/03/26 03:08:28;;;;;;;2.40;2.10;;;;;;;7.52;68.88;95573.88;4990507;28;20251;-67
2023/03/26 03:11:06;;;;;;;18.63;4.17;;;;;;;8.07;67.06;95557.41;4990681;28;20544;-67
2023/03/26 03:13:31;;;;;;;9.20;2.50;;;;;;;8.42;65.69;95554.91;4990227;28;20188;-67
2023/03/26 03:15:57;;;;;;;8.90;3.00;;;;;;;8.62;64.72;95552.16;4989953;28;20431;-66
2023/03/26 03:18:22;;;;;;;6.87;2.97;;;;;;;8.46;65.62;95546.00;4990530;28;20205;-67
2023/03/26 03:20:48;;;;;;;4.93;2.53;;;;;;;8.57;65.25;95540.22;4991190;28;20234;-67
2023/03/26 03:23:14;;;;;;;8.43;2.53;;;;;;;8.64;65.29;95532.00;4990710;28;20308;-67
2023/03/26 03:25:40;;;;;;;3.33;2.50;;;;;;;8.77;64.78;95523.56;4990298;28;21272;-67
2023/03/26 03:28:07;;;;;;;7.40;3.53;;;;;;;8.75;64.71;95520.16;4989733;28;20427;-68
2023/03/26 03:30:33;;;;;;;4.57;2.70;;;;;;;8.60;65.00;95522.63;4989997;28;20176;-67
2023/03/26 03:33:01;;;;;;;5.97;2.37;;;;;;;8.61;64.91;95513.84;4986087;28;20423;-67
2023/03/26 03:35:28;;;;;;;5.03;3.00;;;;;;;8.75;64.12;95513.16;4989076;28;20515;-68
2023/03/26 03:37:54;;;;;;;5.53;2.30;;;;;;;8.89;62.85;95507.22;4986771;28;20447;-67
2023/03/26 03:40:19;;;;;;;4.50;2.40;;;;;;;8.89;63.19;95507.22;4989588;28;20412;-68
2023/03/26 03:42:46;;;;;;;8.10;2.80;;;;;;;8.90;63.26;95516.75;4989413;28;20188;-67
2023/03/26 03:45:12;;;;;;;3.97;2.20;;;;;;;8.80;63.44;95513.75;4989628;28;20212;-67
2023/03/26 03:47:37;;;;;;;4.97;2.50;;;;;;;8.88;63.00;95500.28;4989253;28;20467;-68
2023/03/26 03:50:03;;;;;;;4.60;2.20;;;;;;;8.81;63.04;95505.00;4989548;28;20779;-67
2023/03/26 03:52:29;;;;;;;5.43;2.40;;;;;;;8.79;62.90;95500.78;4989394;28;20658;-67
2023/03/26 03:54:56;;;;;;;4.77;2.83;;;;;;;8.69;63.60;95498.63;4989488;28;20415;-67
2023/03/26 03:57:22;;;;;;;3.13;2.10;;;;;;;8.80;62.93;95499.84;4972882;28;20216;-67
2023/03/26 03:59:48;;;;;;;32.87;4.57;;;;;;;8.75;63.29;95488.78;4968416;28;20413;-67
2023/03/26 04:02:24;;;;;;;9.60;3.37;;;;;;;8.78;63.36;95489.44;4969287;28;20546;-67
2023/03/26 04:04:51;;;;;;;5.83;2.23;;;;;;;8.80;63.22;95479.75;4971134;28;20455;-67
2023/03/26 04:07:17;;;;;;;4.80;2.30;;;;;;;8.80;62.68;95476.28;4969892;28;20565;-67
2023/03/26 04:09:43;;;;;;;6.00;2.77;;;;;;;8.43;64.54;95452.00;4969704;28;20425;-67
2023/03/26 04:12:08;;;;;;;8.20;2.20;;;;;;;8.53;63.97;95458.50;4968345;28;20432;-67
2023/03/26 04:14:34;;;;;;;3.00;2.00;;;;;;;8.53;64.38;95460.22;4969818;28;20539;-67
2023/03/26 04:17:01;;;;;;;9.20;2.40;;;;;;;8.51;64.68;95452.50;4969213;28;20201;-67
2023/03/26 04:19:26;;;;;;;2.97;2.00;;;;;;;8.52;64.02;95455.94;4969679;28;20416;-67
2023/03/26 04:21:52;;;;;;;5.80;2.70;;;;;;;8.48;64.26;95450.03;4970961;28;20428;-67
2023/03/26 04:24:17;;;;;;;7.70;2.90;;;;;;;8.62;63.61;95452.78;4988847;28;20217;-67
2023/03/26 04:26:43;;;;;;;2.60;1.70;;;;;;;8.42;63.83;95460.78;4988685;28;20371;-67
2023/03/26 04:29:15;;;;;;;3.33;2.60;;;;;;;8.41;64.31;95464.31;4989041;28;20180;-67
2023/03/26 04:31:41;;;;;;;5.37;2.20;;;;;;;8.16;65.27;95470.75;4988860;28;20177;-66
2023/03/26 04:34:23;;;;;;;7.00;2.20;;;;;;;8.16;65.52;95465.50;4989084;28;20412;-67
2023/03/26 04:36:50;;;;;;;4.60;2.33;;;;;;;8.33;64.62;95458.59;4988369;28;20490;-67
2023/03/26 04:39:16;;;;;;;12.90;3.43;;;;;;;8.05;65.60;95442.53;4981755;28;20472;-67
2023/03/26 04:41:41;;;;;;;4.70;2.20;;;;;;;7.71;66.59;95450.31;4988473;28;20463;-66
2023/03/26 04:44:07;;;;;;;5.70;2.30;;;;;;;7.96;65.76;95453.44;4988677;28;20467;-67
2023/03/26 04:46:33;;;;;;;2.90;2.20;;;;;;;7.97;65.55;95459.50;4972739;28;20820;-68
2023/03/26 04:49:00;;;;;;;5.97;3.37;;;;;;;8.30;65.07;95453.53;4983906;28;20274;-68
2023/03/26 04:51:33;;;;;;;10.13;3.53;;;;;;;8.37;63.93;95452.31;4968855;28;20453;-66
2023/03/26 04:54:01;;;;;;;5.20;2.57;;;;;;;8.44;64.36;95448.50;4967676;28;20506;-67
2023/03/26 04:56:39;;;;;;;7.47;2.77;;;;;;;8.48;63.62;95432.56;4968452;28;20443;-68
2023/03/26 04:59:05;;;;;;;4.20;2.60;;;;;;;8.49;63.82;95425.56;4968832;28;20424;-68
2023/03/26 05:01:30;;;;;;;3.63;2.17;;;;;;;8.46;63.61;95426.56;4968744;28;21135;-66
2023/03/26 05:03:57;;;;;;;12.00;2.80;;;;;;;8.54;63.83;95435.78;4968656;28;20178;-67
2023/03/26 05:06:26;;;;;;;6.13;2.30;;;;;;;8.53;63.40;95418.41;4968474;28;20190;-68
2023/03/26 05:08:52;;;;;;;4.93;2.37;;;;;;;8.60;63.44;95420.63;4968803;28;20818;-67
2023/03/26 05:11:18;;;;;;;5.77;2.33;;;;;;;8.68;63.32;95415.00;4968638;28;20417;-67
2023/03/26 05:13:43;;;;;;;3.93;2.40;;;;;;;8.62;63.44;95415.31;4968500;28;20188;-67
2023/03/26 05:16:10;;;;;;;3.50;2.03;;;;;;;8.67;63.35;95402.88;4968333;28;20273;-67
2023/03/26 05:18:36;;;;;;;14.50;3.00;;;;;;;8.74;62.88;95400.75;4968530;28;20277;-68
2023/03/26 05:21:01;;;;;;;5.10;2.40;;;;;;;8.75;62.95;95412.91;4968441;28;20432;-67
2023/03/26 05:23:27;;;;;;;9.37;2.83;;;;;;;8.85;62.12;95408.88;4982309;28;20576;-67
2023/03/26 05:25:52;;;;;;;5.50;2.60;;;;;;;8.76;62.22;95409.34;4987334;28;20219;-67
2023/03/26 05:28:19;;;;;;;13.47;3.17;;;;;;;8.77;62.28;95408.44;4987740;28;20191;-68
2023/03/26 05:30:45;;;;;;;5.40;2.07;;;;;;;8.72;62.98;95400.84;4987432;28;20200;-67
2023/03/26 05:33:11;;;;;;;5.60;2.17;;;;;;;8.61;64.11;95403.16;4987554;28;20416;-67
2023/03/26 05:35:37;;;;;;;5.90;2.50;;;;;;;8.67;63.60;95393.25;4987427;28;20507;-68
2023/03/26 05:38:02;;;;;;;6.60;2.67;;;;;;;8.40;64.11;95389.44;4987315;28;20511;-67
2023/03/26 05:40:28;;;;;;;4.53;2.13;;;;;;;8.53;63.76;95385.28;4987597;28;20176;-67
2023/03/26 05:42:54;;;;;;;5.23;2.80;;;;;;;8.60;63.64;95375.34;4978350;28;20185;-67
2023/03/26 05:45:21;;;;;;;6.60;2.73;;;;;;;8.44;64.50;95381.34;4984680;28;20258;-66
2023/03/26 05:47:48;;;;;;;3.10;2.13;;;;;;;8.32;65.29;95379.34;4981926;28;20209;-68
2023/03/26 05:50:14;;;;;;;8.33;2.73;;;;;;;8.39;64.58;95388.56;4981434;28;20487;-67
2023/03/26 05:52:39;;;;;;;8.60;3.00;;;;;;;8.55;64.33;95387.78;4983336;28;20926;-67
2023/03/26 05:55:06;;;;;;;9.00;4.80;;;;;;;8.59;63.98;95384.94;4980296;28;20198;-66
2023/03/26 05:57:34;;;;;;;12.57;4.07;;;;;;;8.69;64.49;95375.69;4981129;28;20189;-67
2023/03/26 06:00:00;;;;;;;9.50;2.70;;;;;;;8.83;64.25;95371.47;4968640;28;20413;-67
2023/03/26 06:02:28;;;;;;;5.27;2.63;;;;;;;8.78;64.03;95368.28;4968878;28;20870;-67
2023/03/26 06:04:55;;;;;;;5.80;2.70;;;;;;;8.62;65.13;95366.50;4967601;28;20464;-67
2023/03/26 06:07:21;;;;;;;8.90;2.67;;;;;;;8.47;65.58;95351.59;4968230;28;20457;-67
2023/03/26 06:09:47;;;;;;;4.87;2.40;;;;;;;8.39;65.87;95345.91;4967742;28;20475;-67
2023/03/26 06:12:13;;;;;;;6.13;2.70;;;;;;;8.25;66.85;95349.22;4968094;28;20183;-67
2023/03/26 06:14:38;;;;;;;7.73;2.40;;;;;;;8.35;66.96;95346.97;4966638;28;20936;-67
2023/03/26 06:17:04;;;;;;;7.70;3.67;;;;;;;8.54;65.98;95350.34;4967818;28;20443;-67
2023/03/26 06:19:29;;;;;;;11.03;3.33;;;;;;;8.65;65.43;95337.53;4967918;28;20180;-67
2023/03/26 06:21:55;;;;;;;6.77;2.70;;;;;;;8.65;65.45;95336.72;4969841;28;20449;-67
2023/03/26 06:24:20;;;;;;;10.10;2.57;;;;;;;8.54;66.32;95324.19;4989237;28;20677;-67
2023/03/26 06:26:47;;;;;;;5.53;2.90;;;;;;;8.54;66.34;95324.19;4991636;28;20574;-67
2023/03/26 06:29:13;;;;;;;5.67;4.37;;;;;;;8.67;66.50;95322.63;4991660;28;20196;-66
2023/03/26 06:31:40;;;;;;;4.33;2.20;;;;;;;8.54;66.63;95323.34;4991120;28;20430;-67
2023/03/26 06:34:05;;;;;;;9.73;3.03;;;;;;;8.50;67.29;95327.03;4992192;28;20420;-66
2023/03/26 06:36:31;;;;;;;7.40;3.20;;;;;;;8.59;66.50;95326.56;4990603;28;20434;-66
2023/03/26 06:38:56;;;;;;;5.60;2.80;;;;;;;8.60;66.37;95326.50;4990830;28;20256;-66
2023/03/26 06:41:22;;;;;;;15.63;3.37;;;;;;;8.74;66.91;95307.44;4990774;28;20255;-66
2023/03/26 06:43:47;;;;;;;8.60;2.87;;;;;;;8.43;68.12;95305.59;4990860;28;20173;-66
2023/03/26 06:46:13;;;;;;;10.53;3.97;;;;;;;8.36;68.93;95301.59;4990131;28;20567;-66
2023/03/26 06:48:40;;;;;;;12.10;4.40;;;;;;;8.60;68.81;95297.72;4990839;28;20297;-66
2023/03/26 06:51:06;;;;;;;8.17;3.10;;;;;;;8.32;68.25;95300.09;4990664;28;20320;-66
2023/03/26 06:53:32;;;;;;;10.00;3.23;;;;;;;8.60;67.78;95295.13;4983048;28;20523;-67
2023/03/26 06:55:57;;;;;;;6.40;2.20;;;;;;;8.23;67.84;95281.34;4989936;28;20197;-68
2023/03/26 06:58:23;;;;;;;14.67;3.47;;;;;;;8.60;67.71;95275.97;4990420;28;20646;-67
2023/03/26 07:00:52;;;;;;;9.20;2.63;;;;;;;8.32;68.52;95253.03;4990561;28;20733;-67
2023/03/26 07:03:17;;;;;;;11.00;3.00;;;;;;;8.31;68.88;95261.78;4990373;28;20177;-67
2023/03/26 07:05:42;;;;;;;5.87;2.87;;;;;;;8.40;68.09;95253.50;4990229;28;20458;-67
2023/03/26 07:08:08;;;;;;;9.20;2.60;;;;;;;8.57;68.25;95255.19;4989942;28;20840;-67
2023/03/26 07:10:33;;;;;;;10.43;3.30;;;;;;;8.66;67.95;95252.91;4988631;28;20702;-67
2023/03/26 07:12:59;;;;;;;10.00;3.13;;;;;;;8.45;68.54;95246.25;4969404;28;20213;-67
2023/03/26 07:15:27;;;;;;;5.53;2.67;;;;;;;8.50;68.15;95233.75;4970914;28;20188;-67
2023/03/26 07:17:52;;;;;;;3.73;2.20;;;;;;;8.41;68.64;95232.50;4975560;28;20231;-66
2023/03/26 07:20:18;;;;;;;4.10;2.30;;;;;;;7.90;70.57;95223.84;4989844;28;20770;-66
2023/03/26 07:22:43;;;;;;;4.27;2.67;;;;;;;8.18;69.58;95228.47;4989525;28;20208;-66
2023/03/26 07:25:10;;;;;;;5.63;2.90;;;;;;;8.33;69.67;95226.81;4989280;28;20205;-66
2023/03/26 07:28:03;;;;;;;5.00;2.33;;;;;;;8.52;68.95;95231.91;4988059;28;20212;-66
2023/03/26 07:30:41;;;;;;;5.53;2.17;;;;;;;8.51;68.91;95209.31;4977237;28;20432;-67
2023/03/26 07:33:10;;;;;;;12.50;2.87;;;;;;;8.47;69.07;95202.56;4976483;28;20531;-67
2023/03/26 07:35:52;;;;;;;9.07;2.70;;;;;;;8.38;69.04;95197.81;4977193;28;20428;-68
2023/03/26 07:38:26;;;;;;;3.40;2.43;;;;;;;8.55;68.98;95194.28;4973694;28;21013;-67
2023/03/26 07:40:57;;;;;;;2.63;2.40;;;;;;;8.50;69.93;95186.69;4986011;28;20528;-67
2023/03/26 07:43:55;;;;;;;8.20;2.57;;;;;;;8.34;70.00;95188.44;4985036;28;20448;-67
2023/03/26 07:46:28;;;;;;;5.40;3.23;;;;;;;8.41;69.66;95184.59;4973780;28;21077;-67
2023/03/26 07:48:57;;;;;;;4.67;3.47;;;;;;;8.27;70.71;95188.78;4983398;28;20857;-67
2023/03/26 07:51:22;;;;;;;6.37;3.00;;;;;;;8.53;69.53;95181.31;4983962;28;20424;-67
2023/03/26 07:53:48;;;;;;;5.10;2.20;;;;;;;8.60;69.19;95174.81;4988199;28;20482;-66
2023/03/26 07:56:20;;;;;;;7.23;3.53;;;;;;;8.62;68.47;95172.97;4988560;28;20189;-67
2023/03/26 07:59:20;;;;;;;4.60;3.00;;;;;;;8.48;69.70;95165.88;4981997;28;20814;-67
2023/03/26 08:02:03;;;;;;;10.00;2.70;;;;;;;8.71;69.45;95168.97;4987063;28;20419;-67
2023/03/26 08:05:20;;;;;;;7.50;2.57;;;;;;;8.66;69.97;95166.63;4989416;28;20960;-68
2023/03/26 08:08:03;;;;;;;8.47;3.20;;;;;;;8.74;69.30;95165.34;4960519;28;20449;-67
2023/03/26 08:10:44;;;;;;;10.03;3.33;;;;;;;8.61;70.68;95167.81;4981317;28;20467;-67
2023/03/26 08:13:18;;;;;;;5.37;2.43;;;;;;;8.39;71.85;95168.97;4986608;28;20432;-67
2023/03/26 08:16:06;;;;;;;5.17;2.23;;;;;;;8.11;72.82;95164.41;4984324;28;20578;-67
2023/03/26 08:18:47;;;;;;;6.60;2.43;;;;;;;8.40;70.95;95155.00;4980894;28;20459;-67
2023/03/26 08:21:25;;;;;;;5.67;1.80;;;;;;;8.21;71.32;95152.50;4984530;28;20428;-67
2023/03/26 08:24:03;;;;;;;3.90;2.43;;;;;;;8.41;72.02;95155.84;4976078;28;20440;-67
2023/03/26 08:26:40;;;;;;;6.83;3.13;;;;;;;8.27;73.26;95162.66;4975326;28;20455;-67
2023/03/26 08:29:33;;;;;;;6.90;3.00;;;;;;;8.45;71.66;95154.75;4985288;28;20911;-67
2023/03/26 08:32:00;;;;;;;6.13;3.00;;;;;;;8.46;71.94;95146.81;4984535;28;20945;-67
2023/03/26 08:34:26;;;;;;;3.63;2.90;;;;;;;8.39;72.83;95147.22;4978835;28;20522;-67
2023/03/26 08:36:51;;;;;;;6.13;3.17;;;;;;;8.10;74.10;95147.03;4984518;28;20452;-67
2023/03/26 08:39:17;;;;;;;12.53;3.70;;;;;;;8.42;72.61;95136.63;4976689;28;20914;-67
2023/03/26 08:42:04;;;;;;;8.07;4.13;;;;;;;8.39;73.53;95142.00;4999329;28;20187;-68
2023/03/26 08:44:54;;;;;;;4.37;3.60;;;;;;;8.45;73.40;95139.06;4970435;28;20205;-67
2023/03/26 08:47:37;;;;;;;10.20;3.43;;;;;;;8.31;74.39;95120.66;4979599;28;20448;-67
2023/03/26 08:50:17;;;;;;;9.40;3.40;;;;;;;8.30;74.65;95124.22;4977177;28;20882;-67
2023/03/26 08:53:07;;;;;;;8.90;3.57;;;;;;;8.25;74.18;95120.06;4976662;28;20440;-67
2023/03/26 08:55:51;;;;;;;5.53;4.10;;;;;;;8.09;74.62;95113.16;4968238;28;20436;-69
2023/03/26 08:58:41;;;;;;;6.20;3.50;;;;;;;8.19;74.59;95115.16;4975132;28;20428;-69
2023/03/26 09:01:44;;;;;;;9.07;3.60;;;;;;;7.87;74.94;95105.66;4977606;28;20530;-68
2023/03/26 09:04:35;;;;;;;5.60;3.67;;;;;;;8.19;74.13;95101.25;4974903;28;20515;-68
2023/03/26 09:07:23;;;;;;;5.50;3.13;;;;;;;8.36;73.46;95092.47;4978589;28;20464;-68
2023/03/26 09:10:04;;;;;;;4.40;3.27;;;;;;;8.06;74.71;95095.88;4983199;28;20431;-69
2023/03/26 09:12:50;;;;;;;9.90;3.60;;;;;;;8.28;73.30;95087.69;4979038;28;20456;-68
2023/03/26 09:15:50;;;;;;;7.70;2.70;;;;;;;8.45;72.80;95084.16;4980975;28;20490;-68
2023/03/26 09:18:27;;;;;;;17.10;4.13;;;;;;;8.52;73.12;95075.03;4982590;28;20467;-69
2023/03/26 09:21:24;;;;;;;7.97;3.50;;;;;;;8.55;72.77;95072.25;4972368;28;20518;-66
2023/03/26 09:24:11;;;;;;;7.00;2.90;;;;;;;8.47;73.38;95059.59;4975385;28;20794;-68
2023/03/26 09:26:58;;;;;;;3.80;3.43;;;;;;;8.72;72.11;95083.50;4985698;28;20471;-69
2023/03/26 09:30:00;;;;;;;3.50;2.50;;;;;;;8.69;71.86;95088.00;4971633;28;20404;-68
2023/03/26 09:33:06;;;;;;;6.57;3.00;;;;;;;8.90;71.27;95096.38;4984619;28;20426;-67
2023/03/26 09:35:52;;;;;;;7.70;3.30;;;;;;;8.98;70.82;95087.25;4979170;28;20495;-67
2023/03/26 09:38:39;;;;;;;6.70;2.70;;;;;;;9.02;70.85;95084.34;4983177;28;20459;-67
2023/03/26 09:41:17;;;;;;;6.60;3.77;;;;;;;9.07;69.80;95086.69;4974589;28;21055;-68
2023/03/26 09:44:22;;;;;;;7.27;5.60;;;;;;;9.17;69.52;95107.94;4973306;28;20485;-69
2023/03/26 09:47:26;;;;;;;4.43;2.87;;;;;;;9.17;70.12;95129.72;4982005;28;20465;-68
2023/03/26 09:50:13;;;;;;;4.00;2.90;;;;;;;9.28;69.50;95121.22;4980653;28;20451;-68
2023/03/26 09:52:50;;;;;;;3.42;2.40;;;;;;;9.33;69.30;95113.97;4980416;28;21157;-68
2023/03/26 09:55:38;;;;;;;8.87;2.67;;;;;;;9.41;69.17;95118.72;4981715;28;20355;-68
2023/03/26 09:58:03;;;;;;;2.57;2.23;;;;;;;9.41;69.60;95121.34;4981832;28;20447;-69
2023/03/26 10:00:47;;;;;;;5.70;3.00;;;;;;;9.40;70.00;95101.31;4981663;28;20436;-69
2023/03/26 10:03:31;;;;;;;8.50;2.33;;;;;;;9.45;70.46;95068.69;4975544;28;20247;-69
2023/03/26 10:06:05;;;;;;;3.47;2.23;;;;;;;9.42;70.89;95084.56;4980448;28;20562;-69
2023/03/26 10:09:08;;;;;;;3.10;2.23;;;;;;;9.63;69.81;95066.72;4982045;28;20531;-69
2023/03/26 10:11:54;;;;;;;3.03;2.50;;;;;;;9.58;70.38;95054.84;4968431;28;20522;-70
2023/03/26 10:15:15;;;;;;;2.60;2.10;;;;;;;9.79;69.23;95076.25;4981334;28;20512;-69
2023/03/26 10:17:55;;;;;;;6.10;3.47;;;;;;;9.92;69.18;95079.78;4946033;28;20449;-66
2023/03/26 10:21:05;;;;;;;4.90;2.27;;;;;;;9.86;69.68;95086.25;4981670;28;20439;-69
2023/03/26 10:23:32;;;;;;;9.25;2.75;;;;;;;9.89;69.33;95070.34;4958428;28;20459;-70
2023/03/26 10:26:09;;;;;;;4.17;2.60;;;;;;;10.47;67.78;95057.13;4972911;28;20468;-69
2023/03/26 10:28:50;;;;;;;8.80;3.00;;;;;;;11.06;65.90;95039.19;4982603;28;20432;-67
2023/03/26 10:31:34;;;;;;;3.80;2.20;;;;;;;11.49;64.91;95044.13;4983784;28;20440;-66
2023/03/26 10:33:59;;;;;;;5.80;2.57;;;;;;;11.73;64.17;95040.75;4973176;28;20446;-68
2023/03/26 10:36:38;;;;;;;3.70;2.00;;;;;;;11.87;63.87;95035.38;4973606;28;20444;-67
2023/03/26 10:39:31;;;;;;;2.60;2.40;;;;;;;12.08;62.71;95040.91;4979863;28;20231;-68
2023/03/26 10:42:27;;;;;;;4.40;2.50;;;;;;;12.54;61.35;95029.66;4982694;28;20511;-69
2023/03/26 10:45:19;;;;;;;4.33;2.57;;;;;;;12.77;61.14;95020.06;4984194;28;20464;-68
2023/03/26 10:48:25;;;;;;;5.67;2.43;;;;;;;12.93;60.07;95025.03;4980570;28;21042;-69
2023/03/26 10:50:51;;;;;;;3.70;2.03;;;;;;;12.86;59.42;95018.56;4981780;28;20428;-69
2023/03/26 10:53:32;;;;;;;1.87;1.63;;;;;;;13.11;59.27;95014.91;4984098;28;20439;-69
2023/03/26 10:56:24;;;;;;;2.20;1.93;;;;;;;12.78;59.67;95027.03;4980965;28;20561;-69
2023/03/26 10:58:50;;;;;;;2.13;1.93;;;;;;;12.46;60.33;95029.41;4984152;28;20441;-68
2023/03/26 11:01:34;;;;;;;2.57;1.60;;;;;;;12.44;60.71;95032.13;4977204;28;20444;-68
2023/03/26 11:04:36;;;;;;;4.27;2.23;;;;;;;12.24;61.72;95004.66;4973426;28;20188;-70
2023/03/26 11:07:26;;;;;;;3.07;1.70;;;;;;;12.21;62.06;95010.16;4973722;28;20464;-70
2023/03/26 11:10:27;;;;;;;5.57;2.37;;;;;;;12.30;60.52;95003.38;4982291;28;20935;-67
2023/03/26 11:13:12;;;;;;;12.90;3.33;;;;;;;12.44;60.17;94997.94;4985746;28;20545;-67
2023/03/26 11:15:58;;;;;;;1.90;1.60;;;;;;;12.52;59.78;94996.53;4978762;28;20432;-69
2023/03/26 11:18:35;;;;;;;2.20;1.97;;;;;;;12.39;60.95;95017.66;4976337;28;20443;-67
2023/03/26 11:21:11;;;;;;;3.10;2.77;;;;;;;12.02;61.79;95042.19;4986024;28;20451;-68
2023/03/26 11:23:45;;;;;;;3.20;2.03;;;;;;;11.60;59.11;95057.38;4973574;28;21119;-68
2023/03/26 11:26:25;;;;;;;3.00;1.17;;;;;;;10.64;62.21;95043.75;4977513;28;20486;-68
2023/03/26 11:28:56;;;;;;;1.33;0.93;;;;;;;10.14;61.98;95063.56;4983052;28;20561;-71
2023/03/26 11:31:48;;;;;;;2.93;1.20;;;;;;;9.98;61.52;95005.19;4988148;28;21242;-68
2023/03/26 11:34:26;;;;;;;1.97;1.30;;;;;;;10.01;60.88;94994.50;4978955;28;20829;-69
2023/03/26 11:36:56;;;;;;;3.73;1.50;;;;;;;9.84;61.74;95014.75;4978419;28;20457;-70
2023/03/26 11:39:28;;;;;;;6.13;1.43;;;;;;;10.16;61.62;95015.34;4984239;28;20438;-69
2023/03/26 11:42:05;;;;;;;5.20;1.73;;;;;;;10.35;61.40;95019.44;4990279;28;20451;-68
2023/03/26 11:44:38;;;;;;;3.63;1.50;;;;;;;10.70;61.24;95021.50;4985235;28;20497;-68
2023/03/26 11:47:09;;;;;;;6.20;1.90;;;;;;;10.69;62.30;95027.69;4979361;28;20521;-68
2023/03/26 11:49:36;;;;;;;2.70;1.17;;;;;;;10.64;61.93;95022.75;4984888;28;20444;-69
2023/03/26 11:52:02;;;;;;;2.80;1.83;;;;;;;10.72;61.55;95011.75;4988206;28;20440;-68
2023/03/26 11:54:28;;;;;;;5.30;2.13;;;;;;;10.78;62.33;95003.47;4982785;28;20436;-69
2023/03/26 11:57:05;;;;;;;8.57;2.57;;;;;;;10.89;62.85;95003.59;4985562;28;20451;-68
2023/03/26 11:59:34;;;;;;;4.13;1.60;;;;;;;10.88;61.85;95012.41;4973579;28;20428;-69
2023/03/26 12:02:10;;;;;;;2.43;1.50;;;;;;;11.02;61.79;95022.81;4981180;28;20436;-68
2023/03/26 12:04:44;;;;;;;2.60;1.50;;;;;;;11.10;61.91;95021.44;4987240;28;20467;-68
2023/03/26 12:07:22;;;;;;;1.83;1.53;;;;;;;10.84;61.55;95017.97;4978587;28;20961;-68